Galva, IA (51020)

2:58 AM CDT on September 03, 2015 (GMT -0500)
Holstein Ag Services, LLC | | Change Station
CLOSE
Current Station
Personal Weather Station
Location: Holstein, IA
Elevation: 1381 ft
Nearby Weather Stations

Elev 1381 ft 42.50 °N, 95.54 °W | Updated 13 seconds ago

Clear
Clear
72.2 °F
Feels Like 72.2 °F
N
9.0
Wind Variable Wind from South
Gusts 15.0 mph

Today
High -- | Low -- °F
--% Chance of Precip.
Yesterday
High -- | Low -- °F
Precip. -- in
6:48 AM 7:52 PM
Waning Gibbous, 72% visible
Pressure 29.88 in
Visibility 9.0 miles
Clouds Clear
Dew Point 71 °F
Humidity 95%
Rainfall 0.00 in
Snow Depth Not available.
UV 0 out of 12
Pollen 9.00 out of 12
Air Quality Not available.
Flu Activity Not available.
METAR KSLB 030735Z AUTO 18008KT 9SM CLR 21/21 A2988 RMK AO2
Pressure 29.88 in
Visibility 9.0 miles
Clouds Clear
Dew Point 71 °F
Humidity 95%
Rainfall 0.00 in
Snow Depth Not available.
UV 0 out of 12
Pollen 9.00 out of 12
Air Quality Not available.
Flu Activity Not available.
METAR KSLB 030735Z AUTO 18008KT 9SM CLR 21/21 A2988 RMK AO2

10-Day Weather Forecast

×

Almanac

Astronomy

Sep. 03, 2015 Rise Set
Actual Time
Civil Twilight
Nautical Twilight
Astronomical Twilight
Moon
Length of Visible Light
Length of Day
Tomorrow will be .
, % of the Moon is Illuminated

Today's Extremes

State Highs State Lows

Community

WunderPhotos

Upload Photos

1,851,919 photos uploaded!

WunderBlogs® & News

Nearby

Air Quality

  Air Quality AQ Index Pollutant
Not available.

Snow Depth

Station Depth Elevation

Earthquake Activity

City Distance Mag. Time & Date
Minimum magnitude displayed is 2.5.

Coastal Water Temperatures

Place Temperature

Stations

Nearby Weather Stations

Station Location Temp. Windchill Dew Point Humidity Wind Precip. Elev Updated Type